weather.gov     
National Weather Service

Terminal Aerodrome Forecast
NWS Homepage
This page is being discontinued on March 12, 2014.
The same data is available at this site. Please update your bookmarks.
Thank you, and we apologize for the inconvenience.
Please send an email to SR-SRH.Webmaster@noaa.gov with any concerns.


Current Version
Previous Version:    01  02  03  04  05  06  07  08  09  10  11  12  13  14  15  16  17  18  19  20  21  22  23  24  25  26  27  28  29  30  
   31  32  33  34  35  36  37  38  39  40  41  42  43  
[Printable]
709
FTUS46 KPQR 220240 AAA
TAFONP
TAF AMD
KONP 220240Z 2203/2224 17012G20KT P6SM -RA BKN009 BKN012 OVC045
     FM220600 19020G30KT 5SM -RA BKN008 OVC012
     FM220900 19027G40KT 3SM RA BKN018 OVC025
     FM221600 19024G35KT 2SM RA BKN025 OVC040
     FM222200 20015G28KT 3SM RA OVC010=




709
FTUS46 KPQR 220240 AAA
TAFONP
TAF AMD
KONP 220240Z 2203/2224 17012G20KT P6SM -RA BKN009 BKN012 OVC045
     FM220600 19020G30KT 5SM -RA BKN008 OVC012
     FM220900 19027G40KT 3SM RA BKN018 OVC025
     FM221600 19024G35KT 2SM RA BKN025 OVC040
     FM222200 20015G28KT 3SM RA OVC010=


U.S. Dept. of Commerce
NOAA National Weather Service
1325 East West Highway
Silver Spring, MD 20910
E-mail: w-nws.webmaster@noaa.gov
Page last modified: May 16, 2007
NATIONAL WEATHER SERVICE: for Safety, for Work, for Fun - FOR LIFE